Walnut Hill, Florida
Current Conditions -  °F | °C
As of 8:56 AM on Monday 22 Dec 2014 (Local Time) from KNSE Reporting Station
Light Rain Light Rain  
Wind Chill: 55°   Ceiling: 300
Heat Index: 55°   Visibility: 10mi
Dew Point: 54°   Wind: 5mph
Humidity: 96%   Direction: 80°E
Pressure: 29.93"   Gusts: NA
Location:  30.8697°N, 87.4663°W
Report Text: KNSE 221456Z 08004KT 10SM -RA BKN003 OVC015 13/12 A2993 RMK AO2 RAB09 SLP123 T2 SET P0000 60000 T01280122 55000 $
Loading
Personal Weather Stations






























Interactive Weather Map New forecast layout! Learn more

10-Day Weather Forecast

Advertisements
Track Severe Weather on mobile